Time,TemperatureF,DewpointF,PressureIn,WindDirection,WindDirectionDegrees,WindSpeedMPH,WindSpeedGustMPH,Humidity,HourlyPrecipIn,Conditions,Clouds,dailyrainin,SoftwareType,DateUTC
2013-10-03 00:00:00,56.3,30.4,29.99,NNW,346,0.0,0.0,37,0.00,,,0.00,VWS V13.01,2013-10-03 07:00:00,
2013-10-03 00:05:00,56.3,30.4,29.99,NNW,346,0.0,0.0,37,0.00,,,0.00,VWS V13.01,2013-10-03 07:05:00,
2013-10-03 00:10:00,56.5,29.9,29.99,NNW,346,0.0,0.0,36,0.00,,,0.00,VWS V13.01,2013-10-03 07:10:00,
2013-10-03 00:15:00,56.7,30.0,29.99,NNW,346,0.0,0.0,36,0.00,,,0.00,VWS V13.01,2013-10-03 07:15:00,
2013-10-03 00:20:00,56.8,30.2,29.99,NNW,346,0.0,0.0,36,0.00,,,0.00,VWS V13.01,2013-10-03 07:20:00,
2013-10-03 00:25:00,56.8,30.2,29.99,NNW,346,0.0,0.0,36,0.00,,,0.00,VWS V13.01,2013-10-03 07:25:00,
2013-10-03 00:30:00,56.8,29.5,29.99,NNW,346,0.0,0.0,35,0.00,,,0.00,VWS V13.01,2013-10-03 07:30:00,
2013-10-03 00:35:00,56.8,29.5,29.99,NNW,346,0.0,0.0,35,0.00,,,0.00,VWS V13.01,2013-10-03 07:35:00,
2013-10-03 00:40:00,56.8,29.5,29.99,NNW,346,0.0,0.0,35,0.00,,,0.00,VWS V13.01,2013-10-03 07:40:00,
2013-10-03 00:45:00,56.7,29.3,29.99,NNW,346,0.0,0.0,35,0.00,,,0.00,VWS V13.01,2013-10-03 07:45:00,
2013-10-03 00:50:00,56.7,29.3,29.99,NNW,346,0.0,0.0,35,0.00,,,0.00,VWS V13.01,2013-10-03 07:50:00,
2013-10-03 00:55:00,56.8,29.5,29.99,NNW,346,0.0,0.0,35,0.00,,,0.00,VWS V13.01,2013-10-03 07:55:00,
2013-10-03 01:00:00,56.8,29.5,29.99,NNW,346,0.0,0.0,35,0.00,,,0.00,VWS V13.01,2013-10-03 08:00:00,
2013-10-03 01:05:00,56.8,29.5,30.02,NNW,346,0.0,0.0,35,0.00,,,0.00,VWS V13.01,2013-10-03 08:05:00,
2013-10-03 01:10:00,56.8,28.8,30.02,NNW,346,0.0,0.0,34,0.00,,,0.00,VWS V13.01,2013-10-03 08:10:00,
2013-10-03 01:15:00,57.0,29.0,30.02,NNW,346,0.0,0.0,34,0.00,,,0.00,VWS V13.01,2013-10-03 08:15:00,
2013-10-03 01:20:00,56.8,28.8,30.02,NNW,346,0.0,0.0,34,0.00,,,0.00,VWS V13.01,2013-10-03 08:20:00,
2013-10-03 01:25:00,56.8,28.8,30.02,NNW,346,0.0,0.0,34,0.00,,,0.00,VWS V13.01,2013-10-03 08:25:00,
2013-10-03 01:30:00,56.8,28.8,30.02,NNW,346,0.0,0.0,34,0.00,,,0.00,VWS V13.01,2013-10-03 08:30:00,
2013-10-03 01:35:00,56.8,28.1,29.99,NNW,346,0.0,0.0,33,0.00,,,0.00,VWS V13.01,2013-10-03 08:35:00,
2013-10-03 01:40:00,56.8,28.1,29.99,NNW,346,0.0,0.0,33,0.00,,,0.00,VWS V13.01,2013-10-03 08:40:00,
2013-10-03 01:45:00,56.7,27.9,29.99,NNW,346,0.0,0.0,33,0.00,,,0.00,VWS V13.01,2013-10-03 08:45:00,
2013-10-03 01:50:00,56.7,27.2,30.02,NNW,346,0.0,0.0,32,0.00,,,0.00,VWS V13.01,2013-10-03 08:50:00,
2013-10-03 01:55:00,56.7,27.2,30.02,NNW,346,0.0,0.0,32,0.00,,,0.00,VWS V13.01,2013-10-03 08:55:00,
2013-10-03 02:00:00,56.7,27.2,30.02,NNW,346,0.0,0.0,32,0.00,,,0.00,VWS V13.01,2013-10-03 09:00:00,
2013-10-03 02:05:00,56.7,27.2,29.99,NNW,346,0.0,0.0,32,0.00,,,0.00,VWS V13.01,2013-10-03 09:05:00,
2013-10-03 02:10:00,56.8,27.3,29.99,NNW,346,0.0,0.0,32,0.00,,,0.00,VWS V13.01,2013-10-03 09:10:00,
2013-10-03 02:15:00,56.8,27.3,29.99,NNW,346,0.0,0.0,32,0.00,,,0.00,VWS V13.01,2013-10-03 09:15:00,
2013-10-03 02:20:00,57.0,27.5,30.02,NNW,346,0.0,0.0,32,0.00,,,0.00,VWS V13.01,2013-10-03 09:20:00,
2013-10-03 02:25:00,56.8,27.3,30.02,NNW,346,0.0,0.0,32,0.00,,,0.00,VWS V13.01,2013-10-03 09:25:00,
2013-10-03 02:30:00,56.7,27.2,30.02,NNW,346,0.0,0.0,32,0.00,,,0.00,VWS V13.01,2013-10-03 09:30:00,
2013-10-03 02:35:00,56.7,27.2,29.99,NNW,346,0.0,0.0,32,0.00,,,0.00,VWS V13.01,2013-10-03 09:35:00,
2013-10-03 02:40:00,55.8,27.1,29.99,NNW,346,0.0,0.0,33,0.00,,,0.00,VWS V13.01,2013-10-03 09:40:00,
2013-10-03 02:45:00,54.0,27.6,29.99,NNW,346,0.0,0.0,36,0.00,,,0.00,VWS V13.01,2013-10-03 09:45:00,
2013-10-03 02:50:00,52.0,27.2,30.02,NNW,346,0.0,0.0,38,0.00,,,0.00,VWS V13.01,2013-10-03 09:50:00,
2013-10-03 02:55:00,50.7,26.7,30.02,NNW,346,0.0,0.0,39,0.00,,,0.00,VWS V13.01,2013-10-03 09:55:00,
2013-10-03 03:00:00,50.2,26.8,30.02,NNW,346,0.0,0.0,40,0.00,,,0.00,VWS V13.01,2013-10-03 10:00:00,
2013-10-03 03:05:00,49.6,27.5,30.02,NNW,346,0.0,0.0,42,0.00,,,0.00,VWS V13.01,2013-10-03 10:05:00,
2013-10-03 03:10:00,49.5,28.5,30.02,NNW,346,0.0,0.0,44,0.00,,,0.00,VWS V13.01,2013-10-03 10:10:00,
2013-10-03 03:15:00,49.3,30.4,30.02,NNW,346,0.0,0.0,48,0.00,,,0.00,VWS V13.01,2013-10-03 10:15:00,
2013-10-03 03:20:00,49.1,30.3,30.02,NNW,346,0.0,0.0,48,0.00,,,0.00,VWS V13.01,2013-10-03 10:20:00,
2013-10-03 03:25:00,49.1,30.3,30.02,NNW,346,0.0,0.0,48,0.00,,,0.00,VWS V13.01,2013-10-03 10:25:00,
2013-10-03 03:30:00,49.1,29.8,30.02,NNW,346,0.0,0.0,47,0.00,,,0.00,VWS V13.01,2013-10-03 10:30:00,
2013-10-03 03:35:00,49.5,30.1,30.02,NNW,346,0.0,0.0,47,0.00,,,0.00,VWS V13.01,2013-10-03 10:35:00,
2013-10-03 03:40:00,49.5,29.6,30.02,NNW,346,0.0,0.0,46,0.00,,,0.00,VWS V13.01,2013-10-03 10:40:00,
2013-10-03 03:45:00,49.6,29.7,30.02,NNW,346,0.0,0.0,46,0.00,,,0.00,VWS V13.01,2013-10-03 10:45:00,
2013-10-03 03:50:00,49.8,29.4,29.99,NNW,346,0.0,0.0,45,0.00,,,0.00,VWS V13.01,2013-10-03 10:50:00,
2013-10-03 03:55:00,50.0,29.0,29.99,NNW,346,0.0,0.0,44,0.00,,,0.00,VWS V13.01,2013-10-03 10:55:00,
2013-10-03 04:00:00,50.2,29.1,29.99,NNW,346,0.0,0.0,44,0.00,,,0.00,VWS V13.01,2013-10-03 11:00:00,
2013-10-03 04:05:00,50.4,28.7,29.99,NNW,346,0.0,0.0,43,0.00,,,0.00,VWS V13.01,2013-10-03 11:05:00,
2013-10-03 04:10:00,50.5,28.9,29.99,NNW,346,0.0,0.0,43,0.00,,,0.00,VWS V13.01,2013-10-03 11:10:00,
2013-10-03 04:15:00,50.5,28.9,29.99,NNW,346,0.0,0.0,43,0.00,,,0.00,VWS V13.01,2013-10-03 11:15:00,
2013-10-03 04:20:00,50.7,29.1,29.99,NNW,346,0.0,0.0,43,0.00,,,0.00,VWS V13.01,2013-10-03 11:20:00,
2013-10-03 04:25:00,50.9,29.2,29.99,NNW,346,0.0,0.0,43,0.00,,,0.00,VWS V13.01,2013-10-03 11:25:00,
2013-10-03 04:30:00,50.9,28.6,29.99,NNW,346,0.0,0.0,42,0.00,,,0.00,VWS V13.01,2013-10-03 11:30:00,
2013-10-03 04:35:00,51.1,28.8,29.99,NNW,346,0.0,0.0,42,0.00,,,0.00,VWS V13.01,2013-10-03 11:35:00,
2013-10-03 04:40:00,51.3,28.4,29.99,NNW,346,0.0,0.0,41,0.00,,,0.00,VWS V13.01,2013-10-03 11:40:00,
2013-10-03 04:45:00,51.4,28.5,29.99,NNW,346,0.0,0.0,41,0.00,,,0.00,VWS V13.01,2013-10-03 11:45:00,
2013-10-03 04:50:00,51.4,28.5,29.99,NNW,346,0.0,0.0,41,0.00,,,0.00,VWS V13.01,2013-10-03 11:50:00,
2013-10-03 04:55:00,51.4,28.5,29.99,NNW,346,0.0,0.0,41,0.00,,,0.00,VWS V13.01,2013-10-03 11:55:00,
2013-10-03 05:00:00,51.4,27.9,29.99,NNW,346,0.0,0.0,40,0.00,,,0.00,VWS V13.01,2013-10-03 12:00:00,
2013-10-03 05:05:00,51.6,28.1,29.99,NNW,346,0.0,0.0,40,0.00,,,0.00,VWS V13.01,2013-10-03 12:05:00,
2013-10-03 05:10:00,51.6,28.1,29.99,NNW,346,0.0,0.0,40,0.00,,,0.00,VWS V13.01,2013-10-03 12:10:00,
2013-10-03 05:15:00,51.4,27.9,29.99,NNW,346,0.0,0.0,40,0.00,,,0.00,VWS V13.01,2013-10-03 12:15:00,
2013-10-03 05:20:00,51.3,28.4,29.99,NNW,346,0.0,0.0,41,0.00,,,0.00,VWS V13.01,2013-10-03 12:20:00,
2013-10-03 05:25:00,50.5,27.7,29.99,NNW,346,0.0,0.0,41,0.00,,,0.00,VWS V13.01,2013-10-03 12:25:00,
2013-10-03 05:30:00,49.3,27.2,29.99,NNW,346,0.0,0.0,42,0.00,,,0.00,VWS V13.01,2013-10-03 12:30:00,
2013-10-03 05:35:00,48.4,26.9,29.99,NNW,346,0.0,0.0,43,0.00,,,0.00,VWS V13.01,2013-10-03 12:35:00,
2013-10-03 05:40:00,47.5,27.8,29.99,NNW,346,0.0,0.0,46,0.00,,,0.00,VWS V13.01,2013-10-03 12:40:00,
2013-10-03 05:45:00,46.9,27.8,29.99,NNW,346,0.0,0.0,47,0.00,,,0.00,VWS V13.01,2013-10-03 12:45:00,
2013-10-03 05:50:00,46.9,28.3,29.99,NNW,346,0.0,0.0,48,0.00,,,0.00,VWS V13.01,2013-10-03 12:50:00,
2013-10-03 05:55:00,46.9,29.8,29.99,NNW,346,0.0,0.0,51,0.00,,,0.00,VWS V13.01,2013-10-03 12:55:00,
2013-10-03 06:00:00,46.8,29.1,29.99,NNW,346,0.0,0.0,50,0.00,,,0.00,VWS V13.01,2013-10-03 13:00:00,
2013-10-03 06:05:00,46.8,29.1,29.99,NNW,346,0.0,0.0,50,0.00,,,0.00,VWS V13.01,2013-10-03 13:05:00,
2013-10-03 06:10:00,46.8,29.1,29.99,NNW,346,0.0,0.0,50,0.00,,,0.00,VWS V13.01,2013-10-03 13:10:00,
2013-10-03 06:15:00,46.8,29.1,29.99,NNW,346,0.0,0.0,50,0.00,,,0.00,VWS V13.01,2013-10-03 13:15:00,
2013-10-03 06:20:00,46.6,29.0,29.99,NNW,346,0.0,0.0,50,0.00,,,0.00,VWS V13.01,2013-10-03 13:20:00,
2013-10-03 06:25:00,46.6,29.0,29.99,NNW,346,0.0,0.0,50,0.00,,,0.00,VWS V13.01,2013-10-03 13:25:00,
2013-10-03 06:29:00,46.6,29.0,29.99,NNW,346,0.0,0.0,50,0.00,,,0.00,VWS V13.01,2013-10-03 13:29:00,
2013-10-03 06:34:00,46.6,29.0,29.99,NNW,346,0.0,0.0,50,0.00,,,0.00,VWS V13.01,2013-10-03 13:34:00,
2013-10-03 06:39:00,46.4,28.8,29.99,NNW,346,0.0,0.0,50,0.00,,,0.00,VWS V13.01,2013-10-03 13:39:00,
2013-10-03 06:44:00,46.2,29.6,29.99,NNW,346,0.0,0.0,52,0.00,,,0.00,VWS V13.01,2013-10-03 13:44:00,
2013-10-03 06:49:00,45.9,29.2,29.99,NNW,346,0.0,0.0,52,0.00,,,0.00,VWS V13.01,2013-10-03 13:49:00,
2013-10-03 06:54:00,45.7,29.1,29.99,NNW,346,0.0,0.0,52,0.00,,,0.00,VWS V13.01,2013-10-03 13:54:00,
2013-10-03 06:59:00,45.5,28.9,29.99,NNW,346,0.0,0.0,52,0.00,,,0.00,VWS V13.01,2013-10-03 13:59:00,
2013-10-03 07:04:00,45.5,28.9,29.99,NNW,346,0.0,0.0,52,0.00,,,0.00,VWS V13.01,2013-10-03 14:04:00,
2013-10-03 07:09:00,45.5,28.9,29.99,NNW,346,0.0,0.0,52,0.00,,,0.00,VWS V13.01,2013-10-03 14:09:00,
2013-10-03 07:14:00,45.5,28.9,29.99,NNW,346,0.0,0.0,52,0.00,,,0.00,VWS V13.01,2013-10-03 14:14:00,
2013-10-03 07:19:00,45.3,28.8,29.99,NNW,346,0.0,0.0,52,0.00,,,0.00,VWS V13.01,2013-10-03 14:19:00,
2013-10-03 07:24:00,45.3,29.2,29.99,NNW,346,0.0,0.0,53,0.00,,,0.00,VWS V13.01,2013-10-03 14:24:00,
2013-10-03 07:29:00,45.3,29.2,29.99,NNW,346,0.0,0.0,53,0.00,,,0.00,VWS V13.01,2013-10-03 14:29:00,
2013-10-03 07:34:00,45.1,30.0,29.99,NNW,346,0.0,0.0,55,0.00,,,0.00,VWS V13.01,2013-10-03 14:34:00,
2013-10-03 07:39:00,45.1,29.5,29.99,NNW,346,0.0,0.0,54,0.00,,,0.00,VWS V13.01,2013-10-03 14:39:00,
2013-10-03 07:44:00,45.1,29.5,29.99,NNW,346,0.0,0.0,54,0.00,,,0.00,VWS V13.01,2013-10-03 14:44:00,
2013-10-03 07:49:00,45.0,29.3,29.99,NNW,346,0.0,0.0,54,0.00,,,0.00,VWS V13.01,2013-10-03 14:49:00,
2013-10-03 07:54:00,44.8,29.2,29.99,NNW,346,0.0,0.0,54,0.00,,,0.00,VWS V13.01,2013-10-03 14:54:00,
2013-10-03 07:59:00,44.8,29.2,29.99,North,349,0.0,0.0,54,0.00,,,0.00,VWS V13.01,2013-10-03 14:59:00,
2013-10-03 08:04:00,45.0,29.3,29.99,North,349,0.0,0.0,54,0.00,,,0.00,VWS V13.01,2013-10-03 15:04:00,
2013-10-03 08:09:00,45.1,29.5,29.99,North,349,0.0,0.0,54,0.00,,,0.00,VWS V13.01,2013-10-03 15:09:00,
2013-10-03 08:14:00,45.3,29.7,29.99,North,349,0.0,0.0,54,0.00,,,0.00,VWS V13.01,2013-10-03 15:14:00,
2013-10-03 08:19:00,45.3,29.7,30.02,North,349,0.0,0.0,54,0.00,,,0.00,VWS V13.01,2013-10-03 15:19:00,
2013-10-03 08:24:00,45.5,29.8,30.02,North,349,0.0,0.0,54,0.00,,,0.00,VWS V13.01,2013-10-03 15:24:00,
2013-10-03 08:29:00,45.7,30.0,30.02,North,349,0.0,0.0,54,0.00,,,0.00,VWS V13.01,2013-10-03 15:29:00,
2013-10-03 08:34:00,45.9,30.2,30.02,North,349,0.0,0.0,54,0.00,,,0.00,VWS V13.01,2013-10-03 15:34:00,
2013-10-03 08:39:00,46.4,30.2,30.02,North,349,0.0,0.0,53,0.00,,,0.00,VWS V13.01,2013-10-03 15:39:00,
2013-10-03 08:44:00,46.6,30.4,30.02,North,349,0.0,0.0,53,0.00,,,0.00,VWS V13.01,2013-10-03 15:44:00,
2013-10-03 08:49:00,46.9,30.2,30.02,North,349,0.0,0.0,52,0.00,,,0.00,VWS V13.01,2013-10-03 15:49:00,
2013-10-03 08:54:00,46.8,30.1,30.02,North,349,0.0,0.0,52,0.00,,,0.00,VWS V13.01,2013-10-03 15:54:00,
2013-10-03 08:59:00,46.8,30.5,30.02,North,349,0.0,0.0,53,0.00,,,0.00,VWS V13.01,2013-10-03 15:59:00,
2013-10-03 09:04:00,46.9,30.7,30.02,North,349,0.0,0.0,53,0.00,,,0.00,VWS V13.01,2013-10-03 16:04:00,
2013-10-03 09:09:00,47.1,30.9,30.02,North,349,0.0,0.0,53,0.00,,,0.00,VWS V13.01,2013-10-03 16:09:00,
2013-10-03 09:14:00,47.3,31.0,30.02,North,349,0.0,0.0,53,0.00,,,0.00,VWS V13.01,2013-10-03 16:14:00,
2013-10-03 09:19:00,47.7,31.4,30.02,North,349,0.0,0.0,53,0.00,,,0.00,VWS V13.01,2013-10-03 16:19:00,
2013-10-03 09:24:00,48.4,31.6,30.02,North,349,0.0,0.0,52,0.00,,,0.00,VWS V13.01,2013-10-03 16:24:00,
2013-10-03 09:29:00,48.9,32.1,30.02,North,349,0.0,0.0,52,0.00,,,0.00,VWS V13.01,2013-10-03 16:29:00,
2013-10-03 09:34:00,49.5,32.1,30.02,NNW,348,0.0,0.0,51,0.00,,,0.00,VWS V13.01,2013-10-03 16:34:00,
2013-10-03 09:39:00,50.0,32.1,30.02,North,349,0.0,0.0,50,0.00,,,0.00,VWS V13.01,2013-10-03 16:39:00,
2013-10-03 09:44:00,50.5,31.6,30.02,North,349,0.0,0.0,48,0.00,,,0.00,VWS V13.01,2013-10-03 16:44:00,
2013-10-03 09:49:00,51.4,31.9,30.02,North,349,0.0,0.0,47,0.00,,,0.00,VWS V13.01,2013-10-03 16:49:00,
2013-10-03 09:54:00,52.0,31.3,30.02,North,349,0.0,0.0,45,0.00,,,0.00,VWS V13.01,2013-10-03 16:54:00,
2013-10-03 09:59:00,52.7,31.4,30.02,North,349,0.0,0.0,44,0.00,,,0.00,VWS V13.01,2013-10-03 16:59:00,
2013-10-03 10:04:00,53.2,31.9,30.02,North,349,0.0,0.0,44,0.00,,,0.00,VWS V13.01,2013-10-03 17:04:00,
2013-10-03 10:09:00,53.8,31.2,30.02,North,349,0.0,0.0,42,0.00,,,0.00,VWS V13.01,2013-10-03 17:09:00,
2013-10-03 10:14:00,54.5,30.7,30.02,North,349,0.0,0.0,40,0.00,,,0.00,VWS V13.01,2013-10-03 17:14:00,
2013-10-03 10:19:00,55.2,31.3,30.02,North,349,0.0,0.0,40,0.00,,,0.00,VWS V13.01,2013-10-03 17:19:00,
2013-10-03 10:24:00,55.8,30.6,30.02,North,349,0.0,0.0,38,0.00,,,0.00,VWS V13.01,2013-10-03 17:24:00,
2013-10-03 10:29:00,56.3,30.4,30.02,NNW,346,0.0,0.0,37,0.00,,,0.00,VWS V13.01,2013-10-03 17:29:00,
2013-10-03 10:34:00,56.8,30.2,30.02,North,349,0.0,0.0,36,0.00,,,0.00,VWS V13.01,2013-10-03 17:34:00,
2013-10-03 10:39:00,57.6,30.8,30.02,North,349,0.0,0.0,36,0.00,,,0.00,VWS V13.01,2013-10-03 17:39:00,
2013-10-03 10:44:00,58.3,31.5,30.02,North,349,0.0,0.0,36,0.00,,,0.00,VWS V13.01,2013-10-03 17:44:00,
2013-10-03 10:49:00,58.6,31.1,30.02,North,349,2.2,2.2,35,0.00,,,0.00,VWS V13.01,2013-10-03 17:49:00,
2013-10-03 10:54:00,58.8,30.5,30.02,NNW,348,2.2,2.2,34,0.00,,,0.00,VWS V13.01,2013-10-03 17:54:00,
2013-10-03 10:59:00,59.2,30.9,30.02,North,349,0.0,0.0,34,0.00,,,0.00,VWS V13.01,2013-10-03 17:59:00,
2013-10-03 11:04:00,59.4,30.3,30.02,North,349,0.0,0.0,33,0.00,,,0.00,VWS V13.01,2013-10-03 18:04:00,
2013-10-03 11:09:00,59.7,30.6,30.02,North,349,0.0,0.0,33,0.00,,,0.00,VWS V13.01,2013-10-03 18:09:00,
2013-10-03 11:14:00,60.1,30.9,30.02,North,349,0.0,0.0,33,0.00,,,0.00,VWS V13.01,2013-10-03 18:14:00,
2013-10-03 11:19:00,60.4,31.2,30.02,North,349,0.0,0.0,33,0.00,,,0.00,VWS V13.01,2013-10-03 18:19:00,
2013-10-03 11:24:00,60.6,31.4,30.02,North,349,0.0,0.0,33,0.00,,,0.00,VWS V13.01,2013-10-03 18:24:00,
2013-10-03 11:29:00,61.2,31.1,30.02,North,349,0.0,0.0,32,0.00,,,0.00,VWS V13.01,2013-10-03 18:29:00,
2013-10-03 11:34:00,61.7,30.0,30.02,NNW,348,0.0,0.0,30,0.00,,,0.00,VWS V13.01,2013-10-03 18:34:00,
2013-10-03 11:39:00,62.2,30.5,30.02,NNW,348,0.0,0.0,30,0.00,,,0.00,VWS V13.01,2013-10-03 18:39:00,
2013-10-03 11:44:00,63.0,29.4,30.02,NNW,348,2.7,2.7,28,0.00,,,0.00,VWS V13.01,2013-10-03 18:44:00,
2013-10-03 11:49:00,63.5,29.8,30.02,North,349,0.0,0.0,28,0.00,,,0.00,VWS V13.01,2013-10-03 18:49:00,
2013-10-03 11:54:00,64.8,30.0,30.02,North,349,0.0,0.0,27,0.00,,,0.00,VWS V13.01,2013-10-03 18:54:00,
2013-10-03 11:59:00,65.8,30.0,30.02,NNW,348,0.0,0.0,26,0.00,,,0.00,VWS V13.01,2013-10-03 18:59:00,
2013-10-03 12:04:00,66.7,30.8,30.02,NNW,348,0.0,0.0,26,0.00,,,0.00,VWS V13.01,2013-10-03 19:04:00,
2013-10-03 12:09:00,67.8,30.7,30.02,North,350,0.0,0.0,25,0.00,,,0.00,VWS V13.01,2013-10-03 19:09:00,
2013-10-03 12:13:00,68.5,31.4,30.02,North,350,0.0,0.0,25,0.00,,,0.00,VWS V13.01,2013-10-03 19:13:00,
2013-10-03 12:18:00,68.9,30.6,30.02,North,349,0.0,0.0,24,0.00,,,0.00,VWS V13.01,2013-10-03 19:18:00,
2013-10-03 12:23:00,69.6,31.3,30.02,North,349,2.2,2.2,24,0.00,,,0.00,VWS V13.01,2013-10-03 19:23:00,
2013-10-03 12:28:00,69.8,30.4,30.02,North,350,0.0,0.0,23,0.00,,,0.00,VWS V13.01,2013-10-03 19:28:00,
2013-10-03 12:33:00,69.4,30.1,30.02,North,349,0.0,0.0,23,0.00,,,0.00,VWS V13.01,2013-10-03 19:33:00,
2013-10-03 12:38:00,69.8,30.4,30.02,NNW,346,2.7,2.7,23,0.00,,,0.00,VWS V13.01,2013-10-03 19:38:00,
2013-10-03 12:43:00,69.8,30.4,30.02,North,349,3.1,3.1,23,0.00,,,0.00,VWS V13.01,2013-10-03 19:43:00,
2013-10-03 12:48:00,69.4,30.1,30.02,North,349,4.0,4.0,23,0.00,,,0.00,VWS V13.01,2013-10-03 19:48:00,
2013-10-03 12:53:00,69.4,30.1,30.02,North,349,2.7,2.7,23,0.00,,,0.00,VWS V13.01,2013-10-03 19:53:00,
2013-10-03 12:58:00,69.6,30.2,30.02,North,349,0.0,0.0,23,0.00,,,0.00,VWS V13.01,2013-10-03 19:58:00,
2013-10-03 13:03:00,70.2,30.7,30.02,North,349,3.1,3.1,23,0.00,,,0.00,VWS V13.01,2013-10-03 20:03:00,
2013-10-03 13:08:00,70.7,31.1,30.02,North,349,0.0,0.0,23,0.00,,,0.00,VWS V13.01,2013-10-03 20:08:00,
2013-10-03 13:13:00,70.7,31.1,30.02,North,349,0.0,0.0,23,0.00,,,0.00,VWS V13.01,2013-10-03 20:13:00,
2013-10-03 13:18:00,70.5,31.0,30.02,NNW,348,3.1,3.1,23,0.00,,,0.00,VWS V13.01,2013-10-03 20:18:00,
2013-10-03 13:23:00,70.2,30.7,29.99,North,350,0.0,0.0,23,0.00,,,0.00,VWS V13.01,2013-10-03 20:23:00,
2013-10-03 13:28:00,70.2,30.7,29.99,NNW,348,4.0,4.0,23,0.00,,,0.00,VWS V13.01,2013-10-03 20:28:00,
2013-10-03 13:33:00,70.2,30.7,29.99,NNW,348,3.1,3.1,23,0.00,,,0.00,VWS V13.01,2013-10-03 20:33:00,
2013-10-03 13:38:00,70.2,30.7,29.99,NNW,348,2.7,2.7,23,0.00,,,0.00,VWS V13.01,2013-10-03 20:38:00,
2013-10-03 13:43:00,70.2,30.7,29.99,North,349,0.0,0.0,23,0.00,,,0.00,VWS V13.01,2013-10-03 20:43:00,
2013-10-03 13:48:00,71.4,31.7,29.99,North,349,0.0,0.0,23,0.00,,,0.00,VWS V13.01,2013-10-03 20:48:00,
2013-10-03 13:53:00,72.3,31.4,29.99,NNW,348,0.0,0.0,22,0.00,,,0.00,VWS V13.01,2013-10-03 20:53:00,
2013-10-03 13:58:00,72.9,31.8,29.99,North,349,0.0,0.0,22,0.00,,,0.00,VWS V13.01,2013-10-03 20:58:00,
2013-10-03 14:03:00,72.3,31.4,29.99,North,350,0.0,0.0,22,0.00,,,0.00,VWS V13.01,2013-10-03 21:03:00,
2013-10-03 14:08:00,72.5,31.5,29.99,North,349,2.7,2.7,22,0.00,,,0.00,VWS V13.01,2013-10-03 21:08:00,
2013-10-03 14:13:00,72.5,31.5,29.99,NNW,346,5.4,5.4,22,0.00,,,0.00,VWS V13.01,2013-10-03 21:13:00,
2013-10-03 14:18:00,72.0,31.1,29.99,North,349,0.0,0.0,22,0.00,,,0.00,VWS V13.01,2013-10-03 21:18:00,
2013-10-03 14:23:00,71.6,30.8,29.99,North,349,4.0,4.0,22,0.00,,,0.00,VWS V13.01,2013-10-03 21:23:00,
2013-10-03 14:28:00,71.8,30.9,29.99,NNW,348,2.7,2.7,22,0.00,,,0.00,VWS V13.01,2013-10-03 21:28:00,
2013-10-03 14:33:00,71.6,30.8,29.99,NNW,348,3.1,3.1,22,0.00,,,0.00,VWS V13.01,2013-10-03 21:33:00,
2013-10-03 14:38:00,71.6,30.8,29.99,North,349,2.7,2.7,22,0.00,,,0.00,VWS V13.01,2013-10-03 21:38:00,
2013-10-03 14:43:00,71.2,30.5,29.99,North,349,2.7,2.7,22,0.00,,,0.00,VWS V13.01,2013-10-03 21:43:00,
2013-10-03 14:48:00,70.7,30.0,29.99,NNW,348,3.1,3.1,22,0.00,,,0.00,VWS V13.01,2013-10-03 21:48:00,
2013-10-03 14:53:00,70.2,29.6,29.99,North,349,3.1,3.1,22,0.00,,,0.00,VWS V13.01,2013-10-03 21:53:00,
2013-10-03 14:58:00,69.6,30.2,29.99,NNW,346,2.2,2.2,23,0.00,,,0.00,VWS V13.01,2013-10-03 21:58:00,
2013-10-03 15:03:00,69.1,28.7,29.99,North,349,0.0,0.0,22,0.00,,,0.00,VWS V13.01,2013-10-03 22:03:00,
2013-10-03 15:08:00,68.7,29.5,29.99,North,349,0.0,0.0,23,0.00,,,0.00,VWS V13.01,2013-10-03 22:08:00,
2013-10-03 15:13:00,68.7,28.4,29.99,North,349,2.7,2.7,22,0.00,,,0.00,VWS V13.01,2013-10-03 22:13:00,
2013-10-03 15:18:00,68.4,29.1,29.99,North,349,0.0,0.0,23,0.00,,,0.00,VWS V13.01,2013-10-03 22:18:00,
2013-10-03 15:23:00,68.5,28.2,29.99,NNW,348,2.2,2.2,22,0.00,,,0.00,VWS V13.01,2013-10-03 22:23:00,
2013-10-03 15:28:00,68.9,28.5,29.99,North,350,4.9,4.9,22,0.00,,,0.00,VWS V13.01,2013-10-03 22:28:00,
2013-10-03 15:33:00,68.9,28.5,29.99,North,349,2.7,2.7,22,0.00,,,0.00,VWS V13.01,2013-10-03 22:33:00,
2013-10-03 15:38:00,68.9,28.5,29.99,North,350,3.6,3.6,22,0.00,,,0.00,VWS V13.01,2013-10-03 22:38:00,
2013-10-03 15:43:00,69.1,28.7,29.99,NNW,348,2.7,2.7,22,0.00,,,0.00,VWS V13.01,2013-10-03 22:43:00,
2013-10-03 15:48:00,69.3,26.5,29.99,North,349,0.0,0.0,20,0.00,,,0.00,VWS V13.01,2013-10-03 22:48:00,
2013-10-03 15:53:00,69.4,26.7,29.99,NNW,348,4.0,4.0,20,0.00,,,0.00,VWS V13.01,2013-10-03 22:53:00,
2013-10-03 15:58:00,69.4,26.7,29.99,NNW,348,0.0,0.0,20,0.00,,,0.00,VWS V13.01,2013-10-03 22:58:00,
2013-10-03 16:03:00,69.6,26.8,29.99,North,349,3.6,3.6,20,0.00,,,0.00,VWS V13.01,2013-10-03 23:03:00,
2013-10-03 16:08:00,70.0,25.9,29.99,North,349,0.0,0.0,19,0.00,,,0.00,VWS V13.01,2013-10-03 23:08:00,
2013-10-03 16:13:00,69.6,26.8,29.99,North,349,3.6,3.6,20,0.00,,,0.00,VWS V13.01,2013-10-03 23:13:00,
2013-10-03 16:18:00,69.6,26.8,29.99,North,350,0.0,0.0,20,0.00,,,0.00,VWS V13.01,2013-10-03 23:18:00,
2013-10-03 16:23:00,69.4,26.7,29.99,North,349,2.2,2.2,20,0.00,,,0.00,VWS V13.01,2013-10-03 23:23:00,
2013-10-03 16:28:00,69.1,26.4,29.99,North,350,0.0,0.0,20,0.00,,,0.00,VWS V13.01,2013-10-03 23:28:00,
2013-10-03 16:33:00,68.5,25.9,29.99,North,349,0.0,0.0,20,0.00,,,0.00,VWS V13.01,2013-10-03 23:33:00,
2013-10-03 16:38:00,68.2,25.6,29.99,North,349,0.0,0.0,20,0.00,,,0.00,VWS V13.01,2013-10-03 23:38:00,
2013-10-03 16:43:00,67.8,25.3,29.99,North,349,0.0,0.0,20,0.00,,,0.00,VWS V13.01,2013-10-03 23:43:00,
2013-10-03 16:48:00,67.5,25.0,29.99,North,349,3.1,3.1,20,0.00,,,0.00,VWS V13.01,2013-10-03 23:48:00,
2013-10-03 16:53:00,67.3,27.2,29.99,North,350,4.0,4.0,22,0.00,,,0.00,VWS V13.01,2013-10-03 23:53:00,
2013-10-03 16:58:00,66.9,24.6,29.99,North,349,3.1,3.1,20,0.00,,,0.00,VWS V13.01,2013-10-03 23:58:00,
2013-10-03 17:03:00,66.7,24.4,29.99,North,349,2.2,2.2,20,0.00,,,0.00,VWS V13.01,2013-10-04 00:03:00,
2013-10-03 17:08:00,66.6,24.3,30.02,NNW,348,0.0,0.0,20,0.00,,,0.00,VWS V13.01,2013-10-04 00:08:00,
2013-10-03 17:13:00,66.6,24.3,30.02,North,350,3.1,3.1,20,0.00,,,0.00,VWS V13.01,2013-10-04 00:13:00,
2013-10-03 17:17:00,66.4,24.1,30.02,North,350,3.1,3.1,20,0.00,,,0.00,VWS V13.01,2013-10-04 00:17:00,
2013-10-03 17:22:00,66.2,24.0,30.02,North,349,2.7,2.7,20,0.00,,,0.00,VWS V13.01,2013-10-04 00:22:00,
2013-10-03 17:27:00,66.0,23.8,30.02,North,349,0.0,0.0,20,0.00,,,0.00,VWS V13.01,2013-10-04 00:27:00,
2013-10-03 17:32:00,65.7,23.5,30.02,North,349,4.0,4.0,20,0.00,,,0.00,VWS V13.01,2013-10-04 00:32:00,
2013-10-03 17:37:00,65.5,23.4,30.02,North,349,3.1,3.1,20,0.00,,,0.00,VWS V13.01,2013-10-04 00:37:00,
2013-10-03 17:42:00,65.5,23.4,30.02,North,350,2.7,2.7,20,0.00,,,0.00,VWS V13.01,2013-10-04 00:42:00,
2013-10-03 17:47:00,65.5,23.4,30.02,North,349,3.6,3.6,20,0.00,,,0.00,VWS V13.01,2013-10-04 00:47:00,
2013-10-03 17:52:00,65.3,23.2,30.02,North,349,3.1,3.1,20,0.00,,,0.00,VWS V13.01,2013-10-04 00:52:00,
2013-10-03 17:57:00,65.3,23.2,30.02,North,350,0.0,0.0,20,0.00,,,0.00,VWS V13.01,2013-10-04 00:57:00,
2013-10-03 18:02:00,65.5,23.4,30.02,North,349,0.0,0.0,20,0.00,,,0.00,VWS V13.01,2013-10-04 01:02:00,
2013-10-03 18:07:00,65.7,23.5,30.02,North,349,2.7,2.7,20,0.00,,,0.00,VWS V13.01,2013-10-04 01:07:00,
2013-10-03 18:12:00,65.5,23.4,30.02,North,349,0.0,0.0,20,0.00,,,0.00,VWS V13.01,2013-10-04 01:12:00,
2013-10-03 18:17:00,64.9,22.9,30.02,North,349,0.0,0.0,20,0.00,,,0.00,VWS V13.01,2013-10-04 01:17:00,
2013-10-03 18:22:00,64.4,22.5,30.02,North,349,0.0,0.0,20,0.00,,,0.00,VWS V13.01,2013-10-04 01:22:00,
2013-10-03 18:27:00,64.0,23.3,30.02,North,349,2.2,2.2,21,0.00,,,0.00,VWS V13.01,2013-10-04 01:27:00,
2013-10-03 18:32:00,63.5,22.9,30.02,North,349,0.0,0.0,21,0.00,,,0.00,VWS V13.01,2013-10-04 01:32:00,
2013-10-03 18:37:00,63.1,22.6,30.05,North,349,2.2,2.2,21,0.00,,,0.00,VWS V13.01,2013-10-04 01:37:00,
2013-10-03 18:42:00,62.6,22.1,30.05,North,349,0.0,0.0,21,0.00,,,0.00,VWS V13.01,2013-10-04 01:42:00,
2013-10-03 18:47:00,62.1,21.7,30.05,North,353,3.1,3.1,21,0.00,,,0.00,VWS V13.01,2013-10-04 01:47:00,
2013-10-03 18:52:00,61.7,21.4,30.05,North,349,0.0,0.0,21,0.00,,,0.00,VWS V13.01,2013-10-04 01:52:00,
2013-10-03 18:57:00,61.5,21.2,30.05,North,349,0.0,0.0,21,0.00,,,0.00,VWS V13.01,2013-10-04 01:57:00,
2013-10-03 19:02:00,61.2,20.9,30.05,North,349,2.7,2.7,21,0.00,,,0.00,VWS V13.01,2013-10-04 02:02:00,
2013-10-03 19:07:00,60.8,23.8,30.05,North,349,0.0,0.0,24,0.00,,,0.00,VWS V13.01,2013-10-04 02:07:00,
2013-10-03 19:12:00,60.4,23.5,30.05,North,349,0.0,0.0,24,0.00,,,0.00,VWS V13.01,2013-10-04 02:12:00,
2013-10-03 19:17:00,59.9,23.0,30.05,North,349,3.6,3.6,24,0.00,,,0.00,VWS V13.01,2013-10-04 02:17:00,
2013-10-03 19:22:00,59.7,22.9,30.05,NNW,348,0.0,0.0,24,0.00,,,0.00,VWS V13.01,2013-10-04 02:22:00,
2013-10-03 19:27:00,59.7,22.9,30.05,North,349,0.0,0.0,24,0.00,,,0.00,VWS V13.01,2013-10-04 02:27:00,
2013-10-03 19:32:00,59.4,22.6,30.05,North,349,0.0,0.0,24,0.00,,,0.00,VWS V13.01,2013-10-04 02:32:00,
2013-10-03 19:37:00,59.4,22.6,30.05,NNW,348,0.0,0.0,24,0.00,,,0.00,VWS V13.01,2013-10-04 02:37:00,
2013-10-03 19:42:00,59.0,22.3,30.05,North,349,0.0,0.0,24,0.00,,,0.00,VWS V13.01,2013-10-04 02:42:00,
2013-10-03 19:47:00,58.6,22.9,30.05,North,349,0.0,0.0,25,0.00,,,0.00,VWS V13.01,2013-10-04 02:47:00,
2013-10-03 19:52:00,58.3,22.6,30.05,North,349,0.0,0.0,25,0.00,,,0.00,VWS V13.01,2013-10-04 02:52:00,
2013-10-03 19:57:00,58.1,22.5,30.05,North,350,0.0,0.0,25,0.00,,,0.00,VWS V13.01,2013-10-04 02:57:00,
2013-10-03 20:02:00,57.7,22.2,30.05,North,349,0.0,0.0,25,0.00,,,0.00,VWS V13.01,2013-10-04 03:02:00,
2013-10-03 20:07:00,57.6,22.0,30.08,North,349,0.0,0.0,25,0.00,,,0.00,VWS V13.01,2013-10-04 03:07:00,
2013-10-03 20:12:00,57.2,21.7,30.08,North,350,0.0,0.0,25,0.00,,,0.00,VWS V13.01,2013-10-04 03:12:00,
2013-10-03 20:17:00,57.0,22.5,30.08,North,349,0.0,0.0,26,0.00,,,0.00,VWS V13.01,2013-10-04 03:17:00,
2013-10-03 20:22:00,56.8,22.3,30.08,North,349,0.0,0.0,26,0.00,,,0.00,VWS V13.01,2013-10-04 03:22:00,
2013-10-03 20:27:00,56.7,22.2,30.08,North,349,0.0,0.0,26,0.00,,,0.00,VWS V13.01,2013-10-04 03:27:00,
2013-10-03 20:32:00,56.5,22.0,30.08,North,349,0.0,0.0,26,0.00,,,0.00,VWS V13.01,2013-10-04 03:32:00,
2013-10-03 20:37:00,56.3,21.9,30.08,North,349,0.0,0.0,26,0.00,,,0.00,VWS V13.01,2013-10-04 03:37:00,
2013-10-03 20:42:00,55.9,21.6,30.08,North,349,0.0,0.0,26,0.00,,,0.00,VWS V13.01,2013-10-04 03:42:00,
2013-10-03 20:47:00,55.9,21.6,30.08,North,350,0.0,0.0,26,0.00,,,0.00,VWS V13.01,2013-10-04 03:47:00,
2013-10-03 20:52:00,55.8,21.4,30.08,North,349,0.0,0.0,26,0.00,,,0.00,VWS V13.01,2013-10-04 03:52:00,
2013-10-03 20:57:00,55.6,21.3,30.08,North,350,0.0,0.0,26,0.00,,,0.00,VWS V13.01,2013-10-04 03:57:00,
2013-10-03 21:31:00,54.9,21.5,30.08,North,349,0.0,0.0,27,0.00,,,0.00,VWS V13.01,2013-10-04 04:31:00,
2013-10-03 21:34:00,54.9,21.5,30.08,North,349,0.0,0.0,27,0.00,,,0.00,VWS V13.01,2013-10-04 04:34:00,
2013-10-03 21:35:00,54.9,21.5,30.08,North,349,0.0,0.0,27,0.00,,,0.00,VWS V13.01,2013-10-04 04:35:00,
2013-10-03 21:36:00,54.9,21.5,30.08,North,349,0.0,0.0,27,0.00,,,0.00,VWS V13.01,2013-10-04 04:36:00,
2013-10-03 21:37:00,54.7,21.4,30.08,North,349,0.0,0.0,27,0.00,,,0.00,VWS V13.01,2013-10-04 04:37:00,
2013-10-03 21:39:00,54.7,21.4,30.08,North,349,0.0,0.0,27,0.00,,,0.00,VWS V13.01,2013-10-04 04:39:00,
2013-10-03 21:42:00,54.7,22.2,30.08,North,349,0.0,0.0,28,0.00,,,0.00,VWS V13.01,2013-10-04 04:42:00,
2013-10-03 21:44:00,54.7,21.4,30.08,North,349,0.0,0.0,27,0.00,,,0.00,VWS V13.01,2013-10-04 04:44:00,
2013-10-03 21:45:00,54.5,22.1,30.08,North,349,0.0,0.0,28,0.00,,,0.00,VWS V13.01,2013-10-04 04:45:00,
2013-10-03 21:46:00,54.5,22.1,30.08,North,349,0.0,0.0,28,0.00,,,0.00,VWS V13.01,2013-10-04 04:46:00,
2013-10-03 21:48:00,54.5,22.1,30.08,North,349,0.0,0.0,28,0.00,,,0.00,VWS V13.01,2013-10-04 04:48:00,
2013-10-03 21:50:00,54.5,22.1,30.08,North,349,0.0,0.0,28,0.00,,,0.00,VWS V13.01,2013-10-04 04:50:00,
2013-10-03 21:53:00,54.5,22.1,30.08,North,349,0.0,0.0,28,0.00,,,0.00,VWS V13.01,2013-10-04 04:53:00,
2013-10-03 21:56:00,54.5,22.1,30.08,North,349,0.0,0.0,28,0.00,,,0.00,VWS V13.01,2013-10-04 04:56:00,
2013-10-03 21:57:00,54.5,22.1,30.08,North,353,0.0,0.0,28,0.00,,,0.00,VWS V13.01,2013-10-04 04:57:00,
2013-10-03 21:59:00,54.3,21.9,30.08,North,353,0.0,0.0,28,0.00,,,0.00,VWS V13.01,2013-10-04 04:59:00,
2013-10-03 22:00:00,54.3,21.9,30.08,North,353,0.0,0.0,28,0.00,,,0.00,VWS V13.01,2013-10-04 05:00:00,
2013-10-03 22:02:00,54.3,21.9,30.08,NNW,346,0.0,0.0,28,0.00,,,0.00,VWS V13.01,2013-10-04 05:02:00,
2013-10-03 22:03:00,54.3,21.9,30.08,North,350,0.0,0.0,28,0.00,,,0.00,VWS V13.01,2013-10-04 05:03:00,
2013-10-03 22:06:00,54.5,22.1,30.08,NNW,346,0.0,0.0,28,0.00,,,0.00,VWS V13.01,2013-10-04 05:06:00,
2013-10-03 22:09:00,54.5,22.1,30.08,North,353,0.0,0.0,28,0.00,,,0.00,VWS V13.01,2013-10-04 05:09:00,
2013-10-03 22:12:00,54.5,22.1,30.08,NNW,344,0.0,0.0,28,0.00,,,0.00,VWS V13.01,2013-10-04 05:12:00,
2013-10-03 22:14:00,54.5,22.1,30.08,NNW,344,0.0,0.0,28,0.00,,,0.00,VWS V13.01,2013-10-04 05:14:00,
2013-10-03 22:15:00,54.5,22.1,30.08,NNW,344,0.0,0.0,28,0.00,,,0.00,VWS V13.01,2013-10-04 05:15:00,
2013-10-03 22:16:00,54.5,22.1,30.08,NNW,344,0.0,0.0,28,0.00,,,0.00,VWS V13.01,2013-10-04 05:16:00,
2013-10-03 22:19:00,54.5,22.1,30.08,NNW,344,0.0,0.0,28,0.00,,,0.00,VWS V13.01,2013-10-04 05:19:00,
2013-10-03 22:25:00,54.5,22.1,30.08,North,353,0.0,0.0,28,0.00,,,0.00,VWS V13.01,2013-10-04 05:25:00,
2013-10-03 22:31:00,54.9,22.4,30.08,North,353,0.0,0.0,28,0.00,,,0.00,VWS V13.01,2013-10-04 05:31:00,
2013-10-03 22:36:00,55.2,22.7,30.08,North,350,0.0,0.0,28,0.00,,,0.00,VWS V13.01,2013-10-04 05:36:00,
2013-10-03 22:41:00,55.4,22.0,30.08,North,350,0.0,0.0,27,0.00,,,0.00,VWS V13.01,2013-10-04 05:41:00,
2013-10-03 22:46:00,55.6,22.1,30.08,North,350,0.0,0.0,27,0.00,,,0.00,VWS V13.01,2013-10-04 05:46:00,
2013-10-03 22:51:00,55.8,22.3,30.08,North,349,0.0,0.0,27,0.00,,,0.00,VWS V13.01,2013-10-04 05:51:00,
2013-10-03 22:56:00,55.6,22.1,30.08,North,349,0.0,0.0,27,0.00,,,0.00,VWS V13.01,2013-10-04 05:56:00,
2013-10-03 23:01:00,55.6,22.1,30.08,North,350,0.0,0.0,27,0.00,,,0.00,VWS V13.01,2013-10-04 06:01:00,
2013-10-03 23:06:00,55.4,22.0,30.08,North,350,2.7,2.7,27,0.00,,,0.00,VWS V13.01,2013-10-04 06:06:00,
2013-10-03 23:11:00,55.4,22.0,30.08,North,350,0.0,0.0,27,0.00,,,0.00,VWS V13.01,2013-10-04 06:11:00,
2013-10-03 23:16:00,55.4,22.0,30.08,North,350,4.0,4.0,27,0.00,,,0.00,VWS V13.01,2013-10-04 06:16:00,
2013-10-03 23:21:00,55.4,22.0,30.08,North,350,0.0,0.0,27,0.00,,,0.00,VWS V13.01,2013-10-04 06:21:00,
2013-10-03 23:26:00,55.6,22.1,30.08,North,349,3.6,3.6,27,0.00,,,0.00,VWS V13.01,2013-10-04 06:26:00,
2013-10-03 23:31:00,55.4,22.0,30.08,North,350,0.0,0.0,27,0.00,,,0.00,VWS V13.01,2013-10-04 06:31:00,
2013-10-03 23:36:00,55.2,22.7,30.08,North,349,0.0,0.0,28,0.00,,,0.00,VWS V13.01,2013-10-04 06:36:00,
2013-10-03 23:41:00,55.0,22.5,30.08,North,350,0.0,0.0,28,0.00,,,0.00,VWS V13.01,2013-10-04 06:41:00,
2013-10-03 23:46:00,54.9,22.4,30.08,North,350,0.0,0.0,28,0.00,,,0.00,VWS V13.01,2013-10-04 06:46:00,
2013-10-03 23:51:00,54.7,22.2,30.08,North,349,0.0,0.0,28,0.00,,,0.00,VWS V13.01,2013-10-04 06:51:00,
2013-10-03 23:56:00,54.7,22.2,30.08,North,349,0.0,0.0,28,0.00,,,0.00,VWS V13.01,2013-10-04 06:56:00,